createdAt,value
2022-09-28T00:02:36.567Z,55.03
2022-09-28T00:05:39.908Z,54.99
2022-09-28T00:08:43.310Z,54.92
2022-09-28T00:11:47.055Z,54.95
2022-09-28T00:14:50.315Z,54.88
2022-09-28T00:17:55.098Z,54.91
2022-09-28T00:21:03.422Z,54.88
2022-09-28T00:24:15.910Z,54.76
2022-09-28T00:27:19.188Z,54.90
2022-09-28T00:30:22.279Z,54.73
2022-09-28T00:33:27.143Z,54.80
2022-09-28T00:36:31.766Z,54.90
2022-09-28T00:39:35.958Z,54.73
2022-09-28T00:42:42.829Z,54.58
2022-09-28T00:45:46.487Z,54.74
2022-09-28T00:48:56.962Z,54.46
2022-09-28T00:52:01.083Z,54.60
2022-09-28T00:55:08.588Z,54.43
2022-09-28T00:58:15.810Z,54.59
2022-09-28T01:01:19.160Z,54.65
2022-09-28T01:04:28.044Z,54.65
2022-09-28T01:07:33.910Z,54.74
2022-09-28T01:10:37.104Z,54.50
2022-09-28T01:13:42.381Z,54.67
2022-09-28T01:16:56.284Z,54.35
2022-09-28T01:20:41.941Z,54.35
2022-09-28T01:24:11.873Z,54.25
2022-09-28T01:27:26.673Z,54.27
2022-09-28T01:30:37.643Z,54.42
2022-09-28T01:33:46.055Z,54.36
2022-09-28T01:36:53.238Z,54.36
2022-09-28T01:39:59.479Z,54.47
2022-09-28T01:43:07.018Z,54.40
2022-09-28T01:46:14.891Z,54.20
2022-09-28T01:49:22.301Z,54.20
2022-09-28T01:52:29.506Z,54.29
2022-09-28T01:55:36.073Z,54.48
2022-09-28T01:58:47.811Z,54.32
2022-09-28T02:01:55.583Z,54.04
2022-09-28T02:05:03.239Z,54.18
2022-09-28T02:08:10.840Z,54.36
2022-09-28T02:11:16.099Z,54.14
2022-09-28T02:14:21.760Z,54.18
2022-09-28T02:17:26.376Z,54.10
2022-09-28T02:20:32.854Z,54.12
2022-09-28T02:23:40.798Z,54.11
2022-09-28T02:26:48.652Z,54.19
2022-09-28T02:29:53.261Z,54.08
2022-09-28T02:33:00.168Z,54.15
2022-09-28T02:36:04.522Z,54.04
2022-09-28T02:39:16.319Z,54.08
2022-09-28T02:42:23.682Z,54.04
2022-09-28T02:45:42.478Z,53.91
2022-09-28T02:49:20.166Z,54.05
2022-09-28T02:52:42.646Z,53.99
2022-09-28T02:56:01.933Z,53.92
2022-09-28T02:59:15.371Z,53.97
2022-09-28T03:02:29.236Z,53.99
2022-09-28T03:05:42.550Z,53.76
2022-09-28T03:08:53.938Z,53.73
2022-09-28T03:12:01.984Z,53.81
2022-09-28T03:15:10.568Z,53.89
2022-09-28T03:18:15.132Z,53.90
2022-09-28T03:21:18.582Z,53.89
2022-09-28T03:24:21.533Z,53.84
2022-09-28T03:27:24.794Z,53.93
2022-09-28T03:30:28.079Z,53.81
2022-09-28T03:33:33.038Z,53.80
2022-09-28T03:36:35.972Z,53.78
2022-09-28T03:39:39.493Z,53.92
2022-09-28T03:42:44.086Z,53.70
2022-09-28T03:45:52.934Z,53.78
2022-09-28T03:48:59.179Z,53.85
2022-09-28T03:52:03.081Z,53.79
2022-09-28T03:55:06.814Z,53.84
2022-09-28T03:58:10.053Z,53.96
2022-09-28T04:01:17.241Z,53.80
2022-09-28T04:04:23.940Z,53.78
2022-09-28T04:07:30.904Z,53.75
2022-09-28T04:10:35.035Z,53.59
2022-09-28T04:13:38.230Z,53.61
2022-09-28T04:16:43.791Z,53.81
2022-09-28T04:19:51.731Z,53.70
2022-09-28T04:23:21.450Z,53.69
2022-09-28T04:26:25.719Z,53.69
2022-09-28T04:29:28.041Z,53.62
2022-09-28T04:32:32.998Z,53.68
2022-09-28T04:35:37.979Z,53.68
2022-09-28T04:38:52.723Z,53.70
2022-09-28T04:41:58.208Z,53.74
2022-09-28T04:45:02.269Z,53.55
2022-09-28T04:48:07.494Z,53.54
2022-09-28T04:51:36.541Z,53.44
2022-09-28T04:54:40.049Z,53.50
2022-09-28T04:57:43.132Z,53.55
2022-09-28T05:00:46.532Z,53.46
2022-09-28T05:04:07.120Z,53.48
2022-09-28T05:07:24.018Z,53.48
2022-09-28T05:10:26.965Z,53.63
2022-09-28T05:13:31.394Z,53.56
2022-09-28T05:16:35.906Z,53.55
2022-09-28T05:19:57.496Z,53.54
2022-09-28T05:23:01.825Z,53.27
2022-09-28T05:26:05.076Z,53.62
2022-09-28T05:29:07.917Z,53.60
2022-09-28T05:32:16.820Z,53.61
2022-09-28T05:35:49.765Z,53.77
2022-09-28T05:38:57.699Z,53.86
2022-09-28T05:42:00.773Z,53.90
2022-09-28T05:45:06.410Z,53.82
2022-09-28T05:48:09.650Z,53.83
2022-09-28T05:51:12.859Z,54.49
2022-09-28T05:54:17.485Z,54.61
2022-09-28T05:57:22.886Z,54.65
2022-09-28T06:00:26.078Z,54.77
2022-09-28T06:03:31.780Z,55.13
2022-09-28T06:06:35.646Z,54.72
2022-09-28T06:09:40.059Z,54.91
2022-09-28T06:13:07.970Z,54.95
2022-09-28T06:16:15.583Z,54.89
2022-09-28T06:19:19.497Z,55.09
2022-09-28T06:22:52.771Z,55.02
2022-09-28T06:25:56.984Z,54.41
2022-09-28T06:29:00.500Z,55.11
2022-09-28T06:32:03.403Z,54.30
2022-09-28T06:35:08.734Z,54.10
2022-09-28T06:38:12.035Z,53.40
2022-09-28T06:41:16.704Z,53.62
2022-09-28T06:44:21.266Z,53.75
2022-09-28T06:47:44.674Z,53.64
2022-09-28T06:50:57.542Z,53.50
2022-09-28T06:54:04.913Z,53.33
2022-09-28T06:57:26.052Z,53.14
2022-09-28T07:00:31.149Z,53.28
2022-09-28T07:03:34.132Z,53.02
2022-09-28T07:06:56.630Z,53.09
2022-09-28T07:10:18.407Z,52.99
2022-09-28T07:13:50.581Z,53.08
2022-09-28T07:17:12.450Z,52.93
2022-09-28T07:20:19.332Z,52.60
2022-09-28T07:23:27.404Z,52.89
2022-09-28T07:26:56.830Z,53.16
2022-09-28T07:30:20.214Z,53.03
2022-09-28T07:33:36.568Z,53.11
2022-09-28T07:36:58.991Z,53.03
2022-09-28T07:40:20.856Z,52.79
2022-09-28T07:43:23.951Z,52.74
2022-09-28T07:46:31.018Z,52.79
2022-09-28T07:49:38.717Z,52.79
2022-09-28T07:52:50.998Z,52.79
2022-09-28T07:56:08.760Z,52.70
2022-09-28T07:59:19.301Z,52.48
2022-09-28T08:02:49.956Z,50.84
2022-09-28T08:06:01.805Z,50.34
2022-09-28T08:09:05.126Z,50.28
2022-09-28T08:12:26.836Z,50.50
2022-09-28T08:15:38.456Z,49.36
2022-09-28T08:18:55.359Z,49.43
2022-09-28T08:21:57.188Z,48.65
2022-09-28T08:25:00.244Z,48.25
2022-09-28T08:28:03.475Z,48.38
2022-09-28T08:31:09.560Z,48.20
2022-09-28T08:34:32.137Z,47.39
2022-09-28T08:38:03.378Z,47.23
2022-09-28T08:41:41.206Z,47.04
2022-09-28T08:45:10.407Z,46.28
2022-09-28T08:48:56.323Z,46.22
2022-09-28T08:52:27.086Z,45.48
2022-09-28T08:55:40.716Z,46.17
2022-09-28T08:58:48.817Z,45.33
2022-09-28T09:01:59.682Z,44.87
2022-09-28T09:05:06.547Z,45.07
2022-09-28T09:08:35.727Z,45.04
2022-09-28T09:11:52.328Z,44.57
2022-09-28T09:15:22.909Z,44.39
2022-09-28T09:18:36.756Z,44.35
2022-09-28T09:22:00.567Z,43.58
2022-09-28T09:25:19.176Z,44.05
2022-09-28T09:29:03.810Z,43.84
2022-09-28T09:32:36.868Z,43.41
2022-09-28T09:35:55.263Z,43.62
2022-09-28T09:39:13.538Z,43.74
2022-09-28T09:42:53.942Z,43.93
2022-09-28T09:46:29.475Z,44.39
2022-09-28T09:49:56.572Z,44.69
2022-09-28T09:53:03.436Z,44.91
2022-09-28T09:56:13.471Z,44.99
2022-09-28T09:59:38.771Z,44.78
2022-09-28T10:02:58.213Z,44.68
2022-09-28T10:06:14.967Z,44.77
2022-09-28T10:09:24.837Z,44.79
2022-09-28T10:12:28.064Z,44.96
2022-09-28T10:15:36.410Z,44.87
2022-09-28T10:18:54.237Z,44.84
2022-09-28T10:22:22.202Z,45.05
2022-09-28T10:25:26.074Z,45.20
2022-09-28T10:28:36.607Z,45.15
2022-09-28T10:31:43.640Z,44.80
2022-09-28T10:34:54.966Z,45.32
2022-09-28T10:38:08.116Z,45.07
2022-09-28T10:41:32.244Z,45.48
2022-09-28T10:44:52.517Z,45.51
2022-09-28T10:48:18.825Z,45.08
2022-09-28T10:51:40.140Z,45.39
2022-09-28T10:54:54.098Z,45.25
2022-09-28T10:57:59.627Z,45.44
2022-09-28T11:01:14.553Z,45.54
2022-09-28T11:04:22.704Z,45.63
2022-09-28T11:07:30.742Z,45.56
2022-09-28T11:10:34.815Z,45.43
2022-09-28T11:13:47.905Z,45.49
2022-09-28T11:17:16.031Z,45.42
2022-09-28T11:20:33.520Z,45.34
2022-09-28T11:23:38.831Z,45.74
2022-09-28T11:26:56.365Z,45.43
2022-09-28T11:30:02.117Z,45.43
2022-09-28T11:33:19.184Z,45.33
2022-09-28T11:37:06.504Z,45.39
2022-09-28T11:40:24.134Z,45.24
2022-09-28T11:43:46.050Z,45.45
2022-09-28T11:46:58.322Z,45.47
2022-09-28T11:50:07.474Z,45.61
2022-09-28T11:53:21.979Z,45.33
2022-09-28T11:56:35.774Z,45.41
2022-09-28T11:59:44.275Z,45.52
2022-09-28T12:02:53.010Z,45.50
2022-09-28T12:06:03.227Z,45.58
2022-09-28T12:09:14.044Z,45.53
2022-09-28T12:12:33.337Z,45.51
2022-09-28T12:16:13.275Z,45.78
2022-09-28T12:19:17.722Z,45.52
2022-09-28T12:22:25.675Z,45.69
2022-09-28T12:25:37.699Z,45.18
2022-09-28T12:28:46.945Z,45.43
2022-09-28T12:32:04.545Z,45.64
2022-09-28T12:35:14.187Z,45.64
2022-09-28T12:38:33.555Z,45.61
2022-09-28T12:41:50.023Z,45.57
2022-09-28T12:45:17.395Z,45.46
2022-09-28T12:48:37.270Z,45.61
2022-09-28T12:51:48.412Z,45.83
2022-09-28T12:55:15.645Z,45.67
2022-09-28T12:58:44.697Z,45.73
2022-09-28T13:02:02.441Z,45.82
2022-09-28T13:05:30.071Z,45.85
2022-09-28T13:08:44.340Z,46.24
2022-09-28T13:11:56.677Z,46.22
2022-09-28T13:15:32.046Z,46.41
2022-09-28T13:18:42.172Z,47.05
2022-09-28T13:21:55.275Z,46.96
2022-09-28T13:25:04.259Z,47.10
2022-09-28T13:28:08.282Z,46.94
2022-09-28T13:31:18.799Z,46.98
2022-09-28T13:34:25.271Z,47.32
2022-09-28T13:37:28.141Z,47.73
2022-09-28T13:41:04.640Z,48.23
2022-09-28T13:44:34.025Z,48.19
2022-09-28T13:47:57.709Z,48.43
2022-09-28T13:51:18.652Z,48.67
2022-09-28T13:54:38.191Z,48.33
2022-09-28T13:57:47.592Z,48.78
2022-09-28T14:00:54.826Z,48.49
2022-09-28T14:04:14.816Z,48.75
2022-09-28T14:07:23.386Z,48.51
2022-09-28T14:10:49.154Z,48.73
2022-09-28T14:13:59.859Z,48.81
2022-09-28T14:17:51.109Z,48.93
2022-09-28T14:21:12.424Z,48.69
2022-09-28T14:24:27.512Z,48.96
2022-09-28T14:27:49.432Z,48.69
2022-09-28T14:30:58.970Z,48.57
2022-09-28T14:34:04.557Z,48.83
2022-09-28T14:37:40.842Z,48.62
2022-09-28T14:41:12.658Z,48.65
2022-09-28T14:44:17.171Z,48.73
2022-09-28T14:47:35.295Z,48.75
2022-09-28T14:50:38.999Z,48.37
2022-09-28T14:53:43.590Z,48.27
2022-09-28T14:57:08.030Z,47.18
2022-09-28T15:00:20.254Z,46.68
2022-09-28T15:03:24.881Z,46.44
2022-09-28T15:06:44.508Z,46.36
2022-09-28T15:09:51.437Z,46.55
2022-09-28T15:12:56.050Z,46.55
2022-09-28T15:16:04.539Z,46.68
2022-09-28T15:19:20.944Z,46.34
2022-09-28T15:22:23.890Z,46.38
2022-09-28T15:25:29.979Z,46.26
2022-09-28T15:28:35.712Z,46.10
2022-09-28T15:31:39.250Z,45.89
2022-09-28T15:34:56.828Z,45.93
2022-09-28T15:38:00.318Z,45.84
2022-09-28T15:41:07.563Z,45.60
2022-09-28T15:44:30.374Z,45.60
2022-09-28T15:47:38.695Z,45.50
2022-09-28T15:50:53.589Z,45.58
2022-09-28T15:54:00.060Z,45.52
2022-09-28T15:57:04.593Z,45.42
2022-09-28T16:00:28.132Z,45.43
2022-09-28T16:03:31.360Z,45.59
2022-09-28T16:06:34.271Z,45.51
2022-09-28T16:09:54.588Z,45.10
2022-09-28T16:13:08.506Z,45.61
2022-09-28T16:16:16.252Z,45.43
2022-09-28T16:19:25.028Z,45.16
2022-09-28T16:22:29.003Z,45.40
2022-09-28T16:25:32.480Z,45.23
2022-09-28T16:28:51.890Z,45.40
2022-09-28T16:31:55.600Z,45.20
2022-09-28T16:35:20.280Z,45.34
2022-09-28T16:38:23.183Z,45.20
2022-09-28T16:41:28.854Z,45.02
2022-09-28T16:44:34.904Z,45.25
2022-09-28T16:47:39.373Z,45.18
2022-09-28T16:50:42.431Z,45.26
2022-09-28T16:54:03.658Z,45.25
2022-09-28T16:57:09.829Z,45.80
2022-09-28T17:00:22.979Z,45.43
2022-09-28T17:03:26.891Z,45.40
2022-09-28T17:06:29.927Z,46.32
2022-09-28T17:25:55.769Z,48.35
2022-09-28T17:28:59.367Z,48.20
2022-09-28T17:32:02.284Z,48.44
2022-09-28T17:35:23.725Z,48.31
2022-09-28T17:38:28.787Z,48.12
2022-09-28T17:41:34.188Z,48.11
2022-09-28T17:44:37.029Z,48.40
2022-09-28T17:48:53.566Z,47.89
2022-09-28T17:51:56.803Z,47.88
2022-09-28T17:57:10.291Z,48.10
2022-09-28T18:00:14.446Z,48.22
2022-09-28T18:03:20.254Z,48.27
2022-09-28T18:06:23.724Z,48.27
2022-09-28T18:09:26.649Z,48.24
2022-09-28T18:12:31.398Z,48.66
2022-09-28T18:15:34.463Z,48.68
2022-09-28T18:18:39.742Z,48.75
2022-09-28T18:21:42.676Z,48.76
2022-09-28T18:24:45.911Z,48.91
2022-09-28T18:27:50.196Z,48.88
2022-09-28T18:30:53.574Z,49.07
2022-09-28T18:34:00.699Z,48.49
2022-09-28T18:37:04.600Z,48.99
2022-09-28T18:40:10.317Z,48.86
2022-09-28T18:43:16.675Z,49.09
2022-09-28T18:46:20.273Z,49.14
2022-09-28T18:49:24.259Z,49.21
2022-09-28T18:52:27.427Z,49.21
2022-09-28T18:55:31.209Z,49.51
2022-09-28T18:58:37.310Z,49.46
2022-09-28T19:01:41.878Z,49.29
2022-09-28T19:04:45.264Z,49.39
2022-09-28T19:07:48.555Z,49.47
2022-09-28T19:10:51.761Z,49.24
2022-09-28T19:13:56.855Z,49.51
2022-09-28T19:17:00.232Z,49.48
2022-09-28T19:20:03.639Z,49.45
2022-09-28T19:23:06.982Z,49.54
2022-09-28T19:26:14.600Z,49.57
2022-09-28T19:29:19.045Z,49.20
2022-09-28T19:32:22.402Z,49.94
2022-09-28T19:35:25.380Z,49.51
2022-09-28T19:38:30.131Z,49.53
2022-09-28T19:41:44.293Z,49.72
2022-09-28T19:44:49.285Z,48.86
2022-09-28T19:47:55.094Z,48.85
2022-09-28T19:51:02.823Z,48.74
2022-09-28T19:54:07.326Z,48.73
2022-09-28T19:57:11.560Z,48.73
2022-09-28T20:00:17.170Z,48.61
2022-09-28T20:03:20.942Z,48.63
2022-09-28T20:06:24.512Z,48.72
2022-09-28T20:09:27.631Z,49.00
2022-09-28T20:12:30.727Z,48.67
2022-09-28T20:15:37.781Z,48.77
2022-09-28T20:18:44.139Z,48.94
2022-09-28T20:21:48.155Z,48.78
2022-09-28T20:24:51.084Z,49.02
2022-09-28T20:29:59.137Z,52.13
2022-09-28T20:34:46.960Z,50.72
2022-09-28T20:41:10.851Z,49.94
2022-09-28T20:44:14.062Z,49.97
2022-09-28T20:47:17.108Z,50.19
2022-09-28T20:50:20.261Z,50.12
2022-09-28T20:53:23.514Z,50.34
2022-09-28T20:56:34.469Z,50.58
2022-09-28T20:59:37.611Z,50.32
2022-09-28T21:02:40.763Z,51.15
2022-09-28T21:05:43.865Z,50.52
2022-09-28T21:08:47.610Z,50.43
2022-09-28T21:11:52.143Z,50.98
2022-09-28T21:14:55.287Z,51.13
2022-09-28T21:17:58.208Z,50.85
2022-09-28T21:21:01.278Z,50.93
2022-09-28T21:24:04.745Z,50.96
2022-09-28T21:27:09.218Z,50.89
2022-09-28T21:30:13.433Z,50.66
2022-09-28T21:33:17.855Z,51.33
2022-09-28T21:36:20.950Z,51.29
2022-09-28T21:39:24.113Z,51.23
2022-09-28T21:42:28.409Z,51.28
2022-09-28T21:45:32.866Z,50.70
2022-09-28T21:48:35.802Z,51.17
2022-09-28T21:51:39.214Z,51.07
2022-09-28T21:54:42.533Z,51.06
2022-09-28T21:57:48.291Z,50.94
2022-09-28T22:00:58.166Z,51.26
2022-09-28T22:04:02.403Z,51.13
2022-09-28T22:07:05.532Z,51.05
2022-09-28T22:10:12.596Z,51.26
2022-09-28T22:13:17.545Z,51.42
2022-09-28T22:16:23.367Z,52.64
2022-09-28T22:19:27.507Z,53.33
2022-09-28T22:22:31.389Z,53.59
2022-09-28T22:25:34.501Z,53.55
2022-09-28T22:28:40.700Z,53.53
2022-09-28T22:31:46.784Z,53.73
2022-09-28T22:34:51.991Z,53.49
2022-09-28T22:37:54.994Z,53.50
2022-09-28T22:40:58.727Z,53.40
2022-09-28T22:44:03.319Z,53.22
2022-09-28T22:47:06.831Z,53.17
2022-09-28T22:50:10.310Z,53.06
2022-09-28T22:53:14.089Z,52.75
2022-09-28T22:56:18.992Z,52.71
2022-09-28T22:59:24.315Z,52.33
2022-09-28T23:02:27.407Z,52.34
2022-09-28T23:05:30.775Z,52.23
2022-09-28T23:08:34.745Z,52.32
2022-09-28T23:11:38.224Z,52.26
2022-09-28T23:14:42.517Z,51.99
2022-09-28T23:17:45.738Z,53.95
2022-09-28T23:20:54.372Z,54.96
2022-09-28T23:24:00.968Z,55.94
2022-09-28T23:27:04.090Z,55.94
2022-09-28T23:30:10.967Z,56.27
2022-09-28T23:33:14.757Z,57.02
2022-09-28T23:36:18.329Z,57.42
2022-09-28T23:39:21.392Z,57.29
2022-09-28T23:42:24.735Z,57.08
2022-09-28T23:45:29.004Z,56.12
2022-09-28T23:48:32.733Z,56.03
2022-09-28T23:51:35.775Z,55.57
2022-09-28T23:54:39.709Z,55.19
2022-09-28T23:57:44.145Z,54.91
